createdAt,value
2022-08-17T00:01:40.015Z,76.27
2022-08-17T00:04:19.398Z,76.16
2022-08-17T00:06:48.671Z,76.29
2022-08-17T00:09:18.269Z,76.00
2022-08-17T00:12:41.391Z,76.21
2022-08-17T00:14:36.497Z,76.16
2022-08-17T00:17:04.813Z,76.14
2022-08-17T00:19:32.631Z,76.02
2022-08-17T00:22:34.308Z,76.18
2022-08-17T00:24:53.523Z,76.34
2022-08-17T00:27:19.953Z,76.39
2022-08-17T00:29:46.778Z,76.51
2022-08-17T00:33:12.123Z,76.61
2022-08-17T00:35:05.002Z,76.69
2022-08-17T00:37:31.375Z,76.60
2022-08-17T00:39:57.826Z,76.35
2022-08-17T00:42:27.602Z,76.46
2022-08-17T00:44:57.397Z,76.27
2022-08-17T00:47:23.877Z,76.16
2022-08-17T00:49:50.382Z,75.99
2022-08-17T00:52:21.608Z,76.12
2022-08-17T00:54:52.277Z,76.15
2022-08-17T00:57:23.416Z,76.16
2022-08-17T01:00:03.062Z,76.10
2022-08-17T01:02:42.540Z,76.13
2022-08-17T01:05:31.128Z,75.98
2022-08-17T01:08:00.017Z,75.82
2022-08-17T01:10:59.609Z,75.33
2022-08-17T01:13:24.974Z,74.94
2022-08-17T01:15:57.759Z,74.65
2022-08-17T01:18:26.208Z,74.27
2022-08-17T01:20:55.009Z,74.20
2022-08-17T01:23:24.993Z,73.97
2022-08-17T01:25:55.270Z,73.83
2022-08-17T01:28:53.246Z,73.98
2022-08-17T01:31:12.387Z,74.07
2022-08-17T01:33:38.788Z,73.98
2022-08-17T01:36:07.445Z,74.21
2022-08-17T01:38:38.034Z,74.88
2022-08-17T01:41:12.242Z,75.17
2022-08-17T01:43:47.761Z,75.93
2022-08-17T01:46:33.434Z,75.95
2022-08-17T01:49:09.823Z,77.51
2022-08-17T01:51:39.376Z,77.83
2022-08-17T01:54:14.956Z,78.14
2022-08-17T01:56:47.213Z,79.12
2022-08-17T01:59:15.582Z,79.69
2022-08-17T02:01:43.533Z,80.07
2022-08-17T02:04:11.237Z,80.45
2022-08-17T02:06:52.545Z,80.65
2022-08-17T02:09:25.847Z,80.33
2022-08-17T02:11:59.276Z,81.11
2022-08-17T02:14:26.692Z,80.77
2022-08-17T02:16:59.116Z,80.87
2022-08-17T02:19:35.800Z,80.74
2022-08-17T02:22:02.273Z,80.68
2022-08-17T02:24:59.510Z,80.86
2022-08-17T02:27:34.092Z,82.25
2022-08-17T02:30:00.526Z,82.40
2022-08-17T02:32:52.606Z,81.98
2022-08-17T02:35:19.409Z,82.00
2022-08-17T02:37:51.856Z,81.96
2022-08-17T02:40:36.145Z,81.51
2022-08-17T02:43:13.712Z,81.10
2022-08-17T02:46:12.814Z,80.82
2022-08-17T02:48:59.591Z,80.73
2022-08-17T02:51:26.925Z,80.44
2022-08-17T02:54:40.129Z,80.46
2022-08-17T02:56:56.698Z,79.93
2022-08-17T02:59:24.326Z,79.88
2022-08-17T03:01:58.771Z,78.79
2022-08-17T03:04:35.277Z,78.10
2022-08-17T03:07:02.929Z,78.88
2022-08-17T03:09:29.376Z,79.02
2022-08-17T03:12:04.665Z,78.99
2022-08-17T03:14:32.397Z,79.33
2022-08-17T03:16:59.864Z,78.63
2022-08-17T03:19:27.248Z,78.71
2022-08-17T03:21:55.072Z,78.22
2022-08-17T03:24:22.089Z,78.23
2022-08-17T03:26:55.104Z,77.71
2022-08-17T03:29:21.488Z,77.40
2022-08-17T03:31:49.249Z,77.18
2022-08-17T03:34:18.334Z,77.27
2022-08-17T03:36:44.797Z,77.10
2022-08-17T03:39:11.204Z,77.47
2022-08-17T03:41:38.838Z,77.70
2022-08-17T03:44:05.324Z,77.62
2022-08-17T03:46:51.491Z,77.25
2022-08-17T03:49:36.649Z,77.33
2022-08-17T03:52:27.653Z,77.93
2022-08-17T03:55:12.528Z,78.02
2022-08-17T03:57:39.076Z,78.52
2022-08-17T04:00:06.090Z,78.96
2022-08-17T04:02:37.669Z,78.68
2022-08-17T04:05:14.985Z,78.04
2022-08-17T04:07:41.801Z,78.33
2022-08-17T04:10:08.561Z,78.10
2022-08-17T04:12:54.573Z,78.04
2022-08-17T04:15:22.496Z,77.37
2022-08-17T04:17:48.941Z,77.73
2022-08-17T04:20:17.612Z,77.52
2022-08-17T04:23:09.383Z,77.90
2022-08-17T04:25:38.681Z,77.36
2022-08-17T04:28:07.721Z,77.43
2022-08-17T04:30:45.144Z,77.74
2022-08-17T04:33:20.466Z,77.63
2022-08-17T04:35:50.592Z,77.76
2022-08-17T04:38:19.854Z,77.40
2022-08-17T04:41:05.491Z,77.66
2022-08-17T04:43:33.784Z,77.65
2022-08-17T04:46:04.671Z,77.54
2022-08-17T04:48:37.837Z,77.93
2022-08-17T04:51:17.644Z,78.04
2022-08-17T04:53:56.991Z,77.96
2022-08-17T04:56:25.865Z,78.31
2022-08-17T04:58:54.350Z,78.52
2022-08-17T05:01:24.560Z,78.92
2022-08-17T05:03:53.440Z,79.13
2022-08-17T05:06:20.325Z,79.62
2022-08-17T05:08:46.776Z,79.83
2022-08-17T05:11:13.753Z,79.80
2022-08-17T05:13:43.524Z,80.11
2022-08-17T05:16:27.233Z,79.86
2022-08-17T05:18:59.201Z,80.11
2022-08-17T05:21:29.955Z,80.15
2022-08-17T05:26:27.538Z,80.21
2022-08-17T05:29:02.814Z,80.41
2022-08-17T05:31:30.532Z,80.51
2022-08-17T05:34:07.211Z,80.60
2022-08-17T05:36:42.199Z,80.98
2022-08-17T05:39:18.403Z,80.85
2022-08-17T05:41:48.339Z,80.69
2022-08-17T05:44:15.713Z,80.58
2022-08-17T05:46:48.008Z,80.78
2022-08-17T05:49:17.896Z,80.75
2022-08-17T05:52:23.950Z,80.26
2022-08-17T05:55:28.689Z,79.56
2022-08-17T05:58:27.855Z,79.22
2022-08-17T06:01:09.566Z,79.33
2022-08-17T06:03:49.496Z,79.38
2022-08-17T06:06:32.229Z,79.96
2022-08-17T06:09:13.087Z,79.81
2022-08-17T06:12:31.233Z,79.89
2022-08-17T06:15:27.791Z,79.83
2022-08-17T06:18:07.985Z,80.24
2022-08-17T06:20:52.341Z,80.28
2022-08-17T06:23:45.052Z,80.27
2022-08-17T06:26:16.146Z,80.03
2022-08-17T06:28:53.818Z,80.20
2022-08-17T06:31:35.153Z,80.41
2022-08-17T06:34:12.505Z,80.60
2022-08-17T06:36:55.748Z,80.74
2022-08-17T06:39:41.054Z,80.60
2022-08-17T06:43:02.137Z,80.89
2022-08-17T06:45:31.260Z,80.92
2022-08-17T06:48:33.859Z,80.88
2022-08-17T06:51:07.593Z,80.85
2022-08-17T06:53:48.345Z,80.81
2022-08-17T06:56:52.648Z,80.57
2022-08-17T06:59:26.216Z,81.04
2022-08-17T07:02:05.573Z,81.10
2022-08-17T07:04:35.204Z,81.03
2022-08-17T07:07:26.440Z,81.09
2022-08-17T07:10:00.401Z,81.19
2022-08-17T07:12:37.941Z,81.07
2022-08-17T07:15:09.627Z,81.12
2022-08-17T07:17:47.869Z,81.11
2022-08-17T07:20:20.378Z,81.07
2022-08-17T07:23:00.149Z,81.24
2022-08-17T07:25:49.486Z,81.00
2022-08-17T07:28:23.093Z,80.82
2022-08-17T07:30:53.708Z,80.93
2022-08-17T07:33:26.544Z,80.59
2022-08-17T07:35:53.976Z,80.51
2022-08-17T07:38:29.412Z,81.15
2022-08-17T07:41:05.330Z,82.26
2022-08-17T07:43:48.402Z,81.96
2022-08-17T07:46:41.290Z,82.97
2022-08-17T07:49:10.436Z,83.35
2022-08-17T07:51:45.532Z,83.33
2022-08-17T07:54:40.400Z,83.27
2022-08-17T07:57:13.004Z,83.64
2022-08-17T07:59:43.291Z,83.71
2022-08-17T08:02:38.693Z,84.00
2022-08-17T08:05:12.952Z,83.88
2022-08-17T08:07:53.040Z,84.10
2022-08-17T08:10:27.773Z,84.52
2022-08-17T08:13:14.378Z,84.17
2022-08-17T08:15:45.197Z,83.14
2022-08-17T08:18:54.995Z,81.92
2022-08-17T08:21:33.111Z,79.75
2022-08-17T08:24:09.736Z,78.75
2022-08-17T08:27:08.007Z,78.78
2022-08-17T08:30:04.729Z,78.94
2022-08-17T08:33:12.149Z,79.02
2022-08-17T08:35:58.501Z,78.31
2022-08-17T08:38:53.697Z,77.66
2022-08-17T08:41:34.451Z,76.82
2022-08-17T08:44:59.770Z,76.35
2022-08-17T08:47:52.132Z,76.17
2022-08-17T08:50:30.294Z,76.34
2022-08-17T08:53:14.824Z,75.52
2022-08-17T08:56:23.946Z,76.62
2022-08-17T08:58:53.253Z,76.53
2022-08-17T09:01:22.872Z,75.86
2022-08-17T09:04:28.737Z,76.24
2022-08-17T09:07:01.255Z,75.52
2022-08-17T09:09:46.691Z,75.45
2022-08-17T09:12:44.362Z,75.43
2022-08-17T09:15:18.156Z,74.98
2022-08-17T09:18:14.626Z,75.58
2022-08-17T09:20:50.414Z,74.10
2022-08-17T09:23:59.979Z,74.19
2022-08-17T09:26:39.604Z,75.89
2022-08-17T09:29:14.597Z,74.87
2022-08-17T09:31:55.100Z,75.69
2022-08-17T09:34:33.648Z,76.01
2022-08-17T09:37:53.534Z,75.86
2022-08-17T09:40:29.292Z,76.46
2022-08-17T09:43:07.814Z,77.67
2022-08-17T09:45:51.064Z,77.99
2022-08-17T09:48:29.340Z,78.12
2022-08-17T09:51:07.630Z,78.10
2022-08-17T09:53:38.625Z,78.35
2022-08-17T09:56:47.050Z,79.37
2022-08-17T10:00:13.214Z,79.76
2022-08-17T10:06:57.675Z,78.93
2022-08-17T10:10:04.644Z,78.40
2022-08-17T10:12:59.725Z,79.20
2022-08-17T10:15:48.202Z,78.71
2022-08-17T10:18:37.669Z,78.92
2022-08-17T10:21:30.349Z,78.52
2022-08-17T10:24:30.729Z,78.65
2022-08-17T10:27:01.421Z,78.13
2022-08-17T10:29:56.389Z,77.34
2022-08-17T10:32:33.578Z,77.07
2022-08-17T10:35:18.843Z,75.89
2022-08-17T10:37:48.276Z,75.59
2022-08-17T10:40:24.611Z,75.97
2022-08-17T10:43:10.668Z,74.58
2022-08-17T10:45:48.989Z,74.63
2022-08-17T10:48:37.601Z,75.57
2022-08-17T10:51:07.647Z,73.77
2022-08-17T10:53:40.685Z,73.94
2022-08-17T10:56:13.230Z,74.44
2022-08-17T10:58:55.912Z,74.49
2022-08-17T11:01:58.296Z,74.62
2022-08-17T11:04:30.137Z,75.53
2022-08-17T11:07:30.621Z,74.59
2022-08-17T11:10:05.881Z,75.77
2022-08-17T11:12:50.216Z,76.05
2022-08-17T11:16:08.273Z,76.09
2022-08-17T11:19:17.630Z,77.49
2022-08-17T11:22:01.621Z,78.12
2022-08-17T11:24:31.321Z,77.64
2022-08-17T11:27:19.804Z,77.83
2022-08-17T11:29:53.689Z,77.96
2022-08-17T11:32:32.543Z,78.29
2022-08-17T11:35:55.032Z,78.39
2022-08-17T11:38:24.968Z,79.32
2022-08-17T11:41:16.292Z,80.10
2022-08-17T11:43:57.784Z,81.13
2022-08-17T11:47:22.209Z,81.29
2022-08-17T11:53:46.042Z,82.11
2022-08-17T11:56:51.798Z,82.84
2022-08-17T11:59:32.633Z,82.66
2022-08-17T12:02:31.585Z,82.91
2022-08-17T12:05:17.246Z,83.30
2022-08-17T12:07:49.298Z,83.94
2022-08-17T12:10:21.479Z,84.13
2022-08-17T12:13:10.488Z,83.97
2022-08-17T12:15:43.183Z,84.33
2022-08-17T12:18:33.546Z,83.83
2022-08-17T12:21:13.332Z,84.79
2022-08-17T12:23:50.158Z,85.03
2022-08-17T12:26:36.154Z,84.64
2022-08-17T12:29:18.413Z,84.43
2022-08-17T12:32:17.693Z,84.90
2022-08-17T12:34:46.821Z,85.17
2022-08-17T12:37:27.396Z,85.15
2022-08-17T12:40:18.910Z,85.00
2022-08-17T12:42:55.940Z,85.84
2022-08-17T12:46:01.260Z,86.14
2022-08-17T12:48:59.029Z,86.93
2022-08-17T12:51:26.748Z,86.54
2022-08-17T12:57:59.734Z,86.33
2022-08-17T13:00:32.416Z,86.19
2022-08-17T13:03:02.575Z,85.87
2022-08-17T13:05:35.547Z,86.89
2022-08-17T13:08:13.403Z,86.39
2022-08-17T13:10:40.103Z,86.59
2022-08-17T13:13:42.701Z,86.71
2022-08-17T13:16:22.600Z,86.30
2022-08-17T13:19:39.857Z,86.06
2022-08-17T13:22:12.760Z,86.19
2022-08-17T13:24:53.004Z,86.11
2022-08-17T13:27:27.565Z,86.10
2022-08-17T13:29:59.701Z,86.28
2022-08-17T13:32:36.352Z,86.18
2022-08-17T13:35:32.433Z,86.45
2022-08-17T13:38:13.071Z,86.71
2022-08-17T13:40:53.167Z,87.23
2022-08-17T13:43:44.556Z,87.21
2022-08-17T13:46:27.014Z,87.31
2022-08-17T13:49:09.857Z,87.27
2022-08-17T13:51:44.038Z,88.27
2022-08-17T13:54:35.201Z,87.65
2022-08-17T13:57:21.550Z,87.56
2022-08-17T13:59:54.218Z,88.00
2022-08-17T14:02:28.254Z,88.07
2022-08-17T14:04:56.987Z,88.05
2022-08-17T14:07:30.737Z,87.88
2022-08-17T14:10:04.372Z,88.01
2022-08-17T14:12:34.932Z,87.86
2022-08-17T14:15:02.354Z,87.91
2022-08-17T14:17:29.491Z,87.93
2022-08-17T14:19:56.187Z,88.97
2022-08-17T14:22:27.468Z,88.94
2022-08-17T14:24:57.081Z,88.48
2022-08-17T14:27:26.261Z,88.75
2022-08-17T14:29:57.962Z,88.62
2022-08-17T14:32:32.966Z,88.49
2022-08-17T14:35:00.742Z,88.38
2022-08-17T14:37:29.315Z,89.13
2022-08-17T14:39:58.559Z,88.74
2022-08-17T14:42:27.510Z,88.79
2022-08-17T14:44:55.309Z,89.16
2022-08-17T14:47:22.577Z,89.53
2022-08-17T14:49:49.137Z,88.57
2022-08-17T14:52:18.286Z,88.97
2022-08-17T14:54:45.885Z,88.84
2022-08-17T14:57:25.843Z,88.80
2022-08-17T14:59:59.256Z,89.10
2022-08-17T15:02:30.924Z,89.11
2022-08-17T15:05:05.233Z,89.00
2022-08-17T15:07:31.893Z,89.45
2022-08-17T15:10:02.370Z,89.26
2022-08-17T15:12:34.565Z,89.48
2022-08-17T15:15:04.430Z,89.89
2022-08-17T15:17:45.254Z,89.52
2022-08-17T15:20:22.782Z,89.01
2022-08-17T15:22:50.210Z,88.69
2022-08-17T15:25:19.007Z,89.17
2022-08-17T15:27:45.589Z,89.38
2022-08-17T15:30:12.332Z,89.34
2022-08-17T15:32:40.853Z,89.34
2022-08-17T15:35:11.733Z,89.24
2022-08-17T15:37:40.208Z,89.47
2022-08-17T15:40:08.780Z,89.25
2022-08-17T15:42:35.656Z,89.03
2022-08-17T15:45:12.351Z,88.46
2022-08-17T15:47:38.990Z,88.96
2022-08-17T15:50:08.012Z,88.73
2022-08-17T15:52:40.406Z,88.40
2022-08-17T15:55:11.623Z,88.29
2022-08-17T15:57:38.236Z,88.61
2022-08-17T16:00:06.581Z,88.64
2022-08-17T16:03:45.811Z,88.61
2022-08-17T16:05:25.203Z,88.16
2022-08-17T16:07:53.697Z,88.51
2022-08-17T16:10:21.005Z,87.71
2022-08-17T16:12:49.808Z,88.40
2022-08-17T16:15:18.020Z,88.42
2022-08-17T16:17:52.971Z,88.38
2022-08-17T16:20:21.093Z,87.42
2022-08-17T16:22:50.324Z,87.56
2022-08-17T16:25:52.078Z,87.66
2022-08-17T16:28:54.260Z,87.46
2022-08-17T16:31:21.007Z,87.72
2022-08-17T16:34:16.195Z,87.71
2022-08-17T16:36:53.561Z,86.96
2022-08-17T16:39:24.240Z,87.89
2022-08-17T16:41:50.722Z,87.37
2022-08-17T16:44:21.998Z,86.95
2022-08-17T16:46:54.658Z,86.82
2022-08-17T16:49:35.773Z,86.79
2022-08-17T16:52:06.285Z,86.75
2022-08-17T16:54:33.429Z,87.58
2022-08-17T16:57:00.203Z,87.58
2022-08-17T17:00:13.006Z,87.39
2022-08-17T17:02:43.148Z,87.51
2022-08-17T17:05:22.520Z,87.94
2022-08-17T17:08:44.723Z,87.36
2022-08-17T17:11:15.684Z,87.87
2022-08-17T17:14:05.368Z,87.80
2022-08-17T17:16:41.667Z,87.95
2022-08-17T17:19:34.493Z,87.73
2022-08-17T17:22:22.975Z,87.12
2022-08-17T17:25:13.872Z,87.40
2022-08-17T17:28:08.169Z,87.48
2022-08-17T17:31:11.050Z,87.67
2022-08-17T17:33:42.813Z,87.73
2022-08-17T17:36:40.543Z,87.67
2022-08-17T17:39:12.397Z,87.78
2022-08-17T17:41:51.851Z,88.00
2022-08-17T17:44:25.856Z,88.31
2022-08-17T17:46:57.140Z,88.26
2022-08-17T17:49:27.112Z,88.38
2022-08-17T17:52:20.733Z,88.15
2022-08-17T17:54:58.421Z,87.99
2022-08-17T17:57:45.406Z,88.13
2022-08-17T18:00:30.552Z,87.83
2022-08-17T18:03:04.533Z,87.99
2022-08-17T18:05:44.444Z,88.15
2022-08-17T18:08:34.752Z,88.31
2022-08-17T18:11:41.533Z,88.32
2022-08-17T18:14:22.532Z,88.39
2022-08-17T18:16:55.065Z,88.31
2022-08-17T18:19:25.084Z,88.37
2022-08-17T18:22:02.197Z,88.38
2022-08-17T18:24:38.486Z,88.32
2022-08-17T18:27:27.932Z,88.33
2022-08-17T18:30:12.699Z,88.74
2022-08-17T18:32:46.948Z,88.50
2022-08-17T18:35:15.960Z,88.35
2022-08-17T18:37:47.136Z,88.43
2022-08-17T18:40:32.037Z,88.38
2022-08-17T18:43:11.978Z,88.26
2022-08-17T18:45:44.242Z,88.27
2022-08-17T18:48:22.548Z,88.19
2022-08-17T18:50:53.303Z,88.55
2022-08-17T18:53:40.778Z,88.35
2022-08-17T18:56:30.526Z,88.55
2022-08-17T18:59:10.240Z,88.57
2022-08-17T19:01:42.027Z,88.68
2022-08-17T19:05:00.746Z,88.85
2022-08-17T19:07:37.993Z,88.74
2022-08-17T19:10:21.097Z,88.95
2022-08-17T19:12:53.156Z,88.91
2022-08-17T19:15:43.741Z,89.21
2022-08-17T19:18:16.890Z,89.24
2022-08-17T19:20:48.221Z,89.10
2022-08-17T19:23:24.832Z,89.18
2022-08-17T19:25:54.730Z,89.31
2022-08-17T19:28:36.935Z,89.27
2022-08-17T19:31:28.380Z,89.52
2022-08-17T19:34:04.315Z,89.50
2022-08-17T19:36:57.034Z,89.70
2022-08-17T19:40:02.657Z,89.38
2022-08-17T19:42:49.757Z,89.27
2022-08-17T19:45:49.722Z,89.11
2022-08-17T19:48:48.295Z,88.98
2022-08-17T19:51:43.658Z,89.03
2022-08-17T19:54:40.231Z,89.07
2022-08-17T19:57:38.154Z,89.20
2022-08-17T20:00:13.562Z,89.50
2022-08-17T20:03:06.295Z,89.25
2022-08-17T20:06:08.798Z,89.33
2022-08-17T20:08:52.020Z,89.21
2022-08-17T20:11:58.729Z,88.97
2022-08-17T20:14:36.054Z,89.29
2022-08-17T20:17:12.527Z,89.35
2022-08-17T20:19:58.321Z,89.27
2022-08-17T20:22:51.816Z,89.45
2022-08-17T20:25:38.044Z,90.01
2022-08-17T20:28:24.150Z,89.48
2022-08-17T20:30:52.508Z,89.54
2022-08-17T20:33:45.976Z,89.42
2022-08-17T20:37:04.425Z,89.58
2022-08-17T20:39:42.774Z,89.28
2022-08-17T20:42:15.401Z,89.42
2022-08-17T20:45:42.233Z,89.52
2022-08-17T20:48:37.589Z,89.55
2022-08-17T20:51:17.444Z,89.40
2022-08-17T20:54:26.796Z,89.41
2022-08-17T20:56:57.709Z,89.12
2022-08-17T20:59:31.652Z,89.19
2022-08-17T21:02:07.224Z,89.09
2022-08-17T21:05:07.244Z,89.36
2022-08-17T21:07:54.495Z,88.96
2022-08-17T21:10:36.389Z,88.99
2022-08-17T21:13:45.342Z,89.04
2022-08-17T21:16:33.684Z,89.08
2022-08-17T21:19:16.960Z,89.38
2022-08-17T21:22:11.055Z,88.86
2022-08-17T21:25:07.866Z,88.93
2022-08-17T21:27:50.049Z,89.52
2022-08-17T21:30:58.396Z,89.25
2022-08-17T21:33:32.188Z,89.16
2022-08-17T21:36:12.751Z,88.97
2022-08-17T21:38:46.824Z,89.18
2022-08-17T21:41:22.838Z,89.24
2022-08-17T21:43:52.112Z,89.19
2022-08-17T21:46:36.993Z,88.75
2022-08-17T21:49:13.820Z,88.84
2022-08-17T21:51:49.969Z,88.83
2022-08-17T21:54:48.468Z,88.48
2022-08-17T21:57:20.313Z,88.24
2022-08-17T21:59:53.308Z,87.91
2022-08-17T22:02:24.004Z,88.46
2022-08-17T22:05:11.564Z,88.42
2022-08-17T22:07:48.413Z,88.30
2022-08-17T22:10:30.433Z,88.53
2022-08-17T22:13:16.890Z,88.43
2022-08-17T22:15:48.461Z,88.10
2022-08-17T22:18:33.588Z,88.21
2022-08-17T22:21:04.689Z,88.45
2022-08-17T22:23:54.766Z,88.43
2022-08-17T22:26:25.321Z,88.43
2022-08-17T22:28:56.408Z,88.66
2022-08-17T22:31:46.332Z,88.18
2022-08-17T22:34:15.080Z,88.46
2022-08-17T22:36:43.205Z,88.05
2022-08-17T22:39:09.628Z,87.98
2022-08-17T22:41:48.315Z,87.78
2022-08-17T22:44:37.778Z,87.62
2022-08-17T22:47:16.334Z,88.15
2022-08-17T22:49:59.882Z,87.93
2022-08-17T22:52:58.777Z,87.67
2022-08-17T22:55:57.866Z,87.44
2022-08-17T22:58:43.366Z,87.50
2022-08-17T23:01:35.424Z,87.44
2022-08-17T23:04:09.371Z,87.22
2022-08-17T23:06:38.300Z,87.04
2022-08-17T23:09:14.781Z,87.01
2022-08-17T23:11:49.756Z,86.62
2022-08-17T23:14:21.493Z,86.99
2022-08-17T23:16:50.886Z,86.49
2022-08-17T23:19:21.185Z,86.44
2022-08-17T23:21:49.136Z,86.80
2022-08-17T23:24:21.702Z,86.32
2022-08-17T23:26:49.297Z,86.72
2022-08-17T23:29:15.937Z,86.80
2022-08-17T23:31:43.447Z,86.72
2022-08-17T23:34:15.082Z,86.39
2022-08-17T23:36:53.139Z,86.55
2022-08-17T23:39:27.344Z,86.35
2022-08-17T23:41:55.465Z,86.29
2022-08-17T23:44:24.793Z,86.30
2022-08-17T23:46:54.143Z,86.30
2022-08-17T23:49:20.678Z,86.25
2022-08-17T23:51:48.596Z,86.34
2022-08-17T23:54:47.114Z,86.66
2022-08-17T23:57:17.461Z,86.75
2022-08-17T23:59:44.639Z,86.64
